createdAt,value
2022-07-29T00:01:05.120Z,72.81
2022-07-29T00:03:32.102Z,72.88
2022-07-29T00:05:59.331Z,73.13
2022-07-29T00:08:27.838Z,73.36
2022-07-29T00:10:54.663Z,74.14
2022-07-29T00:13:32.213Z,73.58
2022-07-29T00:16:04.595Z,73.58
2022-07-29T00:18:31.990Z,74.41
2022-07-29T00:20:58.781Z,73.75
2022-07-29T00:23:25.640Z,74.08
2022-07-29T00:25:52.389Z,73.74
2022-07-29T00:28:19.361Z,74.00
2022-07-29T00:30:47.575Z,74.63
2022-07-29T00:33:14.435Z,75.25
2022-07-29T00:35:47.427Z,74.66
2022-07-29T00:38:16.370Z,75.77
2022-07-29T00:40:44.651Z,73.94
2022-07-29T00:43:12.665Z,73.99
2022-07-29T00:45:39.712Z,74.72
2022-07-29T00:48:09.931Z,74.63
2022-07-29T00:50:37.903Z,74.76
2022-07-29T00:53:05.397Z,74.67
2022-07-29T00:55:32.316Z,75.03
2022-07-29T00:57:59.909Z,75.66
2022-07-29T01:00:29.039Z,74.60
2022-07-29T01:02:55.901Z,73.68
2022-07-29T01:05:25.719Z,74.49
2022-07-29T01:08:14.225Z,73.87
2022-07-29T01:10:42.395Z,74.42
2022-07-29T01:13:10.315Z,74.22
2022-07-29T01:15:49.291Z,73.67
2022-07-29T01:18:22.003Z,73.84
2022-07-29T01:21:11.264Z,75.26
2022-07-29T01:23:58.702Z,74.01
2022-07-29T01:26:46.819Z,73.97
2022-07-29T01:29:24.675Z,74.66
2022-07-29T01:31:59.279Z,74.76
2022-07-29T01:34:39.627Z,74.82
2022-07-29T01:37:16.457Z,74.49
2022-07-29T01:39:45.443Z,74.83
2022-07-29T01:42:20.301Z,75.15
2022-07-29T01:44:54.989Z,74.95
2022-07-29T01:47:26.194Z,75.23
2022-07-29T01:49:56.164Z,75.13
2022-07-29T01:52:29.852Z,75.24
2022-07-29T01:54:59.718Z,75.09
2022-07-29T01:57:30.470Z,74.03
2022-07-29T02:00:01.426Z,75.23
2022-07-29T02:02:39.819Z,75.32
2022-07-29T02:05:08.861Z,75.82
2022-07-29T02:07:37.852Z,75.17
2022-07-29T02:10:07.906Z,75.64
2022-07-29T02:12:36.749Z,76.77
2022-07-29T02:15:06.957Z,75.59
2022-07-29T02:17:38.767Z,75.14
2022-07-29T02:20:09.264Z,74.30
2022-07-29T02:22:40.198Z,74.34
2022-07-29T02:25:14.067Z,75.70
2022-07-29T02:27:42.637Z,75.66
2022-07-29T02:30:13.560Z,76.09
2022-07-29T02:32:42.828Z,75.51
2022-07-29T02:35:11.707Z,75.81
2022-07-29T02:37:39.432Z,75.19
2022-07-29T02:40:11.171Z,75.34
2022-07-29T02:42:39.808Z,75.04
2022-07-29T02:45:09.320Z,75.43
2022-07-29T02:47:42.237Z,75.60
2022-07-29T02:50:15.194Z,74.48
2022-07-29T02:52:45.100Z,74.76
2022-07-29T02:55:16.439Z,75.17
2022-07-29T02:57:54.104Z,74.85
2022-07-29T03:00:24.703Z,73.87
2022-07-29T03:02:56.000Z,73.94
2022-07-29T03:05:24.028Z,74.74
2022-07-29T03:07:55.969Z,73.67
2022-07-29T03:10:24.105Z,73.95
2022-07-29T03:12:51.676Z,72.75
2022-07-29T03:15:19.954Z,73.04
2022-07-29T03:17:47.385Z,72.33
2022-07-29T03:20:16.595Z,71.98
2022-07-29T03:22:45.234Z,73.48
2022-07-29T03:25:13.492Z,72.62
2022-07-29T03:27:40.616Z,73.14
2022-07-29T03:30:09.189Z,74.47
2022-07-29T03:32:36.299Z,76.04
2022-07-29T03:35:04.188Z,76.49
2022-07-29T03:37:32.589Z,75.87
2022-07-29T03:39:59.600Z,76.04
2022-07-29T03:42:34.154Z,76.03
2022-07-29T03:45:04.481Z,75.68
2022-07-29T03:47:39.308Z,75.93
2022-07-29T03:50:20.466Z,76.50
2022-07-29T03:52:50.031Z,77.29
2022-07-29T03:55:17.131Z,79.05
2022-07-29T03:57:45.049Z,77.12
2022-07-29T04:00:12.713Z,76.90
2022-07-29T04:02:41.337Z,76.87
2022-07-29T04:05:13.890Z,77.80
2022-07-29T04:07:41.058Z,77.40
2022-07-29T04:10:10.194Z,77.12
2022-07-29T04:12:37.492Z,77.42
2022-07-29T04:15:04.999Z,77.63
2022-07-29T04:17:31.809Z,78.00
2022-07-29T04:19:58.900Z,78.34
2022-07-29T04:22:25.838Z,78.50
2022-07-29T04:24:54.254Z,77.99
2022-07-29T04:27:22.482Z,77.25
2022-07-29T04:29:56.757Z,77.72
2022-07-29T04:32:24.682Z,76.87
2022-07-29T04:34:51.745Z,76.92
2022-07-29T04:37:18.570Z,77.13
2022-07-29T04:39:45.535Z,77.18
2022-07-29T04:42:12.341Z,77.51
2022-07-29T04:44:43.162Z,76.72
2022-07-29T04:47:10.259Z,77.51
2022-07-29T04:49:39.093Z,77.59
2022-07-29T04:52:06.497Z,77.08
2022-07-29T04:54:33.449Z,77.44
2022-07-29T04:57:00.324Z,76.91
2022-07-29T04:59:27.721Z,77.63
2022-07-29T05:01:55.959Z,76.82
2022-07-29T05:04:23.163Z,76.72
2022-07-29T05:06:50.204Z,77.27
2022-07-29T05:09:17.106Z,77.62
2022-07-29T05:11:44.025Z,77.66
2022-07-29T05:14:10.886Z,78.03
2022-07-29T05:16:37.715Z,78.28
2022-07-29T05:19:08.598Z,78.27
2022-07-29T05:21:38.019Z,77.63
2022-07-29T05:24:05.432Z,76.88
2022-07-29T05:26:32.530Z,76.81
2022-07-29T05:28:59.450Z,76.91
2022-07-29T05:31:26.329Z,75.65
2022-07-29T05:33:53.158Z,76.18
2022-07-29T05:36:21.290Z,75.58
2022-07-29T05:38:48.164Z,75.65
2022-07-29T05:41:15.007Z,74.95
2022-07-29T05:43:42.113Z,75.11
2022-07-29T05:46:09.073Z,76.02
2022-07-29T05:48:36.029Z,75.27
2022-07-29T05:51:02.976Z,73.47
2022-07-29T05:53:31.325Z,73.04
2022-07-29T05:55:58.066Z,73.58
2022-07-29T05:58:24.924Z,74.19
2022-07-29T06:00:51.839Z,75.10
2022-07-29T06:03:18.711Z,73.18
2022-07-29T06:05:45.537Z,74.05
2022-07-29T06:08:12.340Z,73.05
2022-07-29T06:10:40.689Z,74.04
2022-07-29T06:13:07.513Z,73.35
2022-07-29T06:15:34.531Z,72.67
2022-07-29T06:18:02.285Z,72.92
2022-07-29T06:20:31.415Z,72.31
2022-07-29T06:22:59.429Z,73.15
2022-07-29T06:25:26.997Z,72.23
2022-07-29T06:27:55.475Z,71.58
2022-07-29T06:30:22.893Z,72.14
2022-07-29T06:32:50.710Z,71.73
2022-07-29T06:35:41.177Z,70.71
2022-07-29T06:38:05.241Z,71.95
2022-07-29T06:41:04.961Z,71.04
2022-07-29T06:43:50.083Z,71.41
2022-07-29T06:46:19.060Z,71.10
2022-07-29T06:48:46.890Z,71.91
2022-07-29T06:51:13.640Z,71.13
2022-07-29T06:54:00.348Z,72.06
2022-07-29T06:56:28.348Z,71.43
2022-07-29T06:58:56.565Z,70.51
2022-07-29T07:01:23.356Z,71.51
2022-07-29T07:03:50.239Z,69.45
2022-07-29T07:06:17.391Z,69.79
2022-07-29T07:08:44.847Z,70.49
2022-07-29T07:11:11.678Z,69.75
2022-07-29T07:13:38.792Z,68.34
2022-07-29T07:16:07.092Z,68.63
2022-07-29T07:18:34.238Z,69.21
2022-07-29T07:21:01.304Z,69.66
2022-07-29T07:23:28.292Z,70.28
2022-07-29T07:25:55.129Z,69.22
2022-07-29T07:28:24.692Z,68.88
2022-07-29T07:30:52.099Z,69.50
2022-07-29T07:33:20.546Z,70.03
2022-07-29T07:35:47.534Z,71.47
2022-07-29T07:38:15.023Z,71.74
2022-07-29T07:40:42.497Z,69.92
2022-07-29T07:43:09.243Z,69.53
2022-07-29T07:45:38.372Z,67.49
2022-07-29T07:48:05.691Z,67.94
2022-07-29T07:50:33.854Z,67.15
2022-07-29T07:53:03.017Z,66.09
2022-07-29T07:55:53.245Z,64.53
2022-07-29T07:58:16.854Z,66.00
2022-07-29T08:00:46.069Z,64.17
2022-07-29T08:03:16.591Z,62.95
2022-07-29T08:05:45.909Z,60.98
2022-07-29T08:08:15.394Z,59.69
2022-07-29T08:10:54.465Z,58.44
2022-07-29T08:13:22.616Z,56.30
2022-07-29T08:15:58.762Z,56.37
2022-07-29T08:18:26.604Z,54.78
2022-07-29T08:20:55.206Z,53.58
2022-07-29T08:23:22.483Z,52.14
2022-07-29T08:25:50.290Z,52.88
2022-07-29T08:28:17.331Z,54.38
2022-07-29T08:30:44.380Z,53.35
2022-07-29T08:33:11.257Z,52.44
2022-07-29T08:35:39.968Z,51.04
2022-07-29T08:38:08.143Z,53.23
2022-07-29T08:40:34.945Z,53.06
2022-07-29T08:43:08.489Z,50.76
2022-07-29T08:45:48.192Z,52.29
2022-07-29T08:48:17.790Z,51.98
2022-07-29T08:50:46.744Z,52.49
2022-07-29T08:53:18.015Z,54.00
2022-07-29T08:55:46.366Z,52.38
2022-07-29T08:58:15.687Z,53.59
2022-07-29T09:00:44.383Z,52.27
2022-07-29T09:03:15.888Z,53.60
2022-07-29T09:05:47.759Z,53.69
2022-07-29T09:08:17.257Z,52.08
2022-07-29T09:10:44.683Z,50.83
2022-07-29T09:13:11.571Z,46.14
2022-07-29T09:15:38.319Z,46.04
2022-07-29T09:18:05.103Z,49.32
2022-07-29T09:20:51.797Z,48.63
2022-07-29T09:23:24.613Z,49.73
2022-07-29T09:25:51.827Z,45.86
2022-07-29T09:28:19.097Z,46.37
2022-07-29T09:30:52.327Z,46.15
2022-07-29T09:33:19.923Z,48.65
2022-07-29T09:35:56.589Z,47.36
2022-07-29T09:38:25.547Z,46.43
2022-07-29T09:41:05.615Z,46.28
2022-07-29T09:43:33.496Z,44.21
2022-07-29T09:46:12.273Z,46.14
2022-07-29T09:48:39.416Z,46.32
2022-07-29T09:51:07.512Z,47.97
2022-07-29T09:53:38.159Z,45.80
2022-07-29T09:56:06.063Z,44.83
2022-07-29T09:58:34.770Z,51.17
2022-07-29T10:01:02.762Z,46.11
2022-07-29T10:03:29.997Z,49.84
2022-07-29T10:06:08.275Z,41.71
2022-07-29T10:08:37.203Z,46.91
2022-07-29T10:11:13.858Z,47.69
2022-07-29T10:13:41.919Z,48.72
2022-07-29T10:16:09.377Z,48.77
2022-07-29T10:18:38.679Z,43.04
2022-07-29T10:21:05.699Z,43.33
2022-07-29T10:23:46.310Z,44.62
2022-07-29T10:26:16.649Z,45.67
2022-07-29T10:28:43.428Z,47.66
2022-07-29T10:31:16.648Z,45.35
2022-07-29T10:33:54.032Z,47.61
2022-07-29T10:36:33.697Z,51.83
2022-07-29T10:39:15.546Z,48.31
2022-07-29T10:42:03.600Z,50.16
2022-07-29T10:44:31.378Z,49.90
2022-07-29T10:46:58.934Z,48.73
2022-07-29T10:49:30.347Z,45.87
2022-07-29T10:52:00.919Z,43.56
2022-07-29T10:54:54.868Z,43.59
2022-07-29T10:57:53.207Z,48.73
2022-07-29T11:00:29.948Z,48.71
2022-07-29T11:02:59.535Z,48.21
2022-07-29T11:05:39.926Z,49.09
2022-07-29T11:08:35.053Z,44.72
2022-07-29T11:11:31.906Z,44.00
2022-07-29T11:14:00.705Z,38.88
2022-07-29T11:17:06.304Z,40.88
2022-07-29T11:19:34.474Z,41.66
2022-07-29T11:22:03.059Z,43.37
2022-07-29T11:24:34.784Z,43.17
2022-07-29T11:27:18.389Z,42.30
2022-07-29T11:29:57.283Z,41.54
2022-07-29T11:32:29.241Z,45.30
2022-07-29T11:35:17.601Z,43.79
2022-07-29T11:37:52.261Z,41.25
2022-07-29T11:40:23.064Z,46.27
2022-07-29T11:42:52.177Z,40.79
2022-07-29T11:45:44.272Z,41.81
2022-07-29T11:48:29.494Z,39.22
2022-07-29T11:51:00.267Z,41.86
2022-07-29T11:56:16.429Z,41.66
2022-07-29T11:58:44.181Z,41.35
2022-07-29T12:01:18.525Z,43.16
2022-07-29T12:03:45.458Z,44.31
2022-07-29T12:06:14.815Z,46.78
2022-07-29T12:08:44.000Z,47.16
2022-07-29T12:11:17.717Z,48.44
2022-07-29T12:13:49.315Z,46.71
2022-07-29T12:16:29.302Z,46.59
2022-07-29T12:19:02.456Z,45.23
2022-07-29T12:21:30.239Z,47.65
2022-07-29T12:24:03.471Z,46.93
2022-07-29T12:26:34.121Z,42.55
2022-07-29T12:29:03.288Z,42.66
2022-07-29T12:31:43.517Z,44.72
2022-07-29T12:34:12.831Z,46.72
2022-07-29T12:36:39.693Z,47.58
2022-07-29T12:39:06.656Z,50.33
2022-07-29T12:41:33.550Z,47.50
2022-07-29T12:44:00.456Z,48.14
2022-07-29T12:46:27.554Z,47.43
2022-07-29T12:48:56.277Z,51.11
2022-07-29T12:51:30.252Z,51.73
2022-07-29T12:54:05.951Z,50.26
2022-07-29T12:56:42.761Z,49.13
2022-07-29T12:59:18.845Z,46.73
2022-07-29T13:01:48.111Z,43.40
2022-07-29T13:04:27.868Z,43.62
2022-07-29T13:07:00.804Z,42.43
2022-07-29T13:09:38.213Z,47.70
2022-07-29T13:12:08.598Z,47.97
2022-07-29T13:14:37.869Z,49.79
2022-07-29T13:17:06.803Z,49.60
2022-07-29T13:19:37.716Z,47.51
2022-07-29T13:22:05.424Z,48.31
2022-07-29T13:24:32.257Z,47.34
2022-07-29T13:26:59.143Z,46.91
2022-07-29T13:29:31.349Z,48.47
2022-07-29T13:31:58.941Z,46.60
2022-07-29T13:34:26.118Z,46.63
2022-07-29T13:36:54.527Z,47.09
2022-07-29T13:39:21.307Z,49.14
2022-07-29T13:41:48.139Z,47.10
2022-07-29T13:44:16.104Z,47.11
2022-07-29T13:46:42.977Z,43.71
2022-07-29T13:49:09.795Z,44.92
2022-07-29T13:51:36.668Z,44.85
2022-07-29T13:54:04.840Z,47.88
2022-07-29T13:56:31.873Z,48.59
2022-07-29T13:58:58.660Z,50.06
2022-07-29T14:01:26.192Z,50.39
2022-07-29T14:03:52.993Z,49.07
2022-07-29T14:06:20.183Z,48.13
2022-07-29T14:08:49.320Z,46.91
2022-07-29T14:11:17.521Z,45.31
2022-07-29T14:13:45.802Z,49.01
2022-07-29T14:16:12.820Z,49.51
2022-07-29T14:18:39.729Z,48.22
2022-07-29T14:21:06.555Z,46.38
2022-07-29T14:23:33.404Z,46.45
2022-07-29T14:26:00.815Z,51.15
2022-07-29T14:28:29.733Z,50.64
2022-07-29T14:30:56.407Z,47.91
2022-07-29T14:33:23.175Z,43.54
2022-07-29T14:35:50.049Z,45.21
2022-07-29T14:38:16.820Z,51.00
2022-07-29T14:40:43.649Z,49.39
2022-07-29T14:43:10.404Z,49.00
2022-07-29T14:45:38.565Z,49.17
2022-07-29T14:48:05.859Z,47.15
2022-07-29T14:50:33.224Z,44.22
2022-07-29T14:53:00.109Z,48.18
2022-07-29T14:55:27.188Z,47.36
2022-07-29T14:58:03.089Z,47.70
2022-07-29T15:00:34.931Z,49.31
2022-07-29T15:03:03.923Z,49.33
2022-07-29T15:05:31.485Z,49.01
2022-07-29T15:07:58.414Z,44.44
2022-07-29T15:10:27.142Z,43.39
2022-07-29T15:12:53.943Z,44.60
2022-07-29T15:15:20.886Z,46.97
2022-07-29T15:17:47.903Z,44.97
2022-07-29T15:20:16.101Z,46.04
2022-07-29T15:22:43.941Z,42.61
2022-07-29T15:25:11.163Z,45.46
2022-07-29T15:27:38.084Z,42.78
2022-07-29T15:30:05.739Z,41.09
2022-07-29T15:32:32.611Z,38.26
2022-07-29T15:34:59.512Z,41.84
2022-07-29T15:37:29.670Z,39.68
2022-07-29T15:40:16.551Z,38.54
2022-07-29T15:42:43.329Z,40.48
2022-07-29T15:45:10.621Z,38.15
2022-07-29T15:47:37.580Z,39.05
2022-07-29T15:50:05.533Z,38.07
2022-07-29T15:52:33.894Z,39.14
2022-07-29T15:55:00.718Z,36.71
2022-07-29T15:57:27.463Z,37.21
2022-07-29T15:59:54.338Z,38.34
2022-07-29T16:02:21.135Z,38.76
2022-07-29T16:04:47.986Z,39.05
2022-07-29T16:07:14.740Z,37.25
2022-07-29T16:09:43.656Z,36.98
2022-07-29T16:12:14.970Z,37.54
2022-07-29T16:14:42.822Z,41.32
2022-07-29T16:17:09.660Z,45.84
2022-07-29T16:19:41.500Z,51.57
2022-07-29T16:22:08.331Z,52.25
2022-07-29T16:24:35.193Z,50.13
2022-07-29T16:27:03.498Z,48.81
2022-07-29T16:29:30.346Z,50.02
2022-07-29T16:31:57.257Z,48.46
2022-07-29T16:34:24.363Z,48.86
2022-07-29T16:36:51.171Z,52.10
2022-07-29T16:39:17.908Z,50.72
2022-07-29T16:41:44.680Z,52.85
2022-07-29T16:44:12.931Z,57.67
2022-07-29T16:46:39.672Z,58.37
2022-07-29T16:49:08.436Z,60.24
2022-07-29T16:51:35.386Z,60.93
2022-07-29T16:54:02.227Z,60.84
2022-07-29T16:56:29.061Z,62.31
2022-07-29T16:58:57.476Z,62.34
2022-07-29T17:01:25.677Z,62.48
2022-07-29T17:04:07.546Z,62.38
2022-07-29T17:06:35.199Z,63.65
2022-07-29T17:09:02.395Z,64.79
2022-07-29T17:11:52.426Z,64.07
2022-07-29T17:14:16.438Z,64.75
2022-07-29T17:17:00.627Z,65.76
2022-07-29T17:19:31.212Z,65.46
2022-07-29T17:22:06.352Z,65.58
2022-07-29T17:24:36.066Z,65.92
2022-07-29T17:27:02.988Z,66.35
2022-07-29T17:29:32.244Z,65.10
2022-07-29T17:32:00.283Z,63.70
2022-07-29T17:34:27.353Z,65.08
2022-07-29T17:36:54.141Z,64.69
2022-07-29T17:39:21.759Z,65.47
2022-07-29T17:41:48.662Z,65.55
2022-07-29T17:44:15.538Z,66.21
2022-07-29T17:46:42.502Z,65.97
2022-07-29T17:49:11.331Z,66.92
2022-07-29T17:51:38.499Z,67.21
2022-07-29T17:54:05.509Z,68.63
2022-07-29T17:56:34.267Z,69.33
2022-07-29T17:59:06.466Z,69.70
2022-07-29T18:01:34.058Z,68.98
2022-07-29T18:04:02.428Z,68.40
2022-07-29T18:06:31.016Z,68.94
2022-07-29T18:08:57.779Z,69.68
2022-07-29T18:11:24.659Z,71.01
2022-07-29T18:13:52.019Z,72.27
2022-07-29T18:16:19.676Z,72.25
2022-07-29T18:18:46.807Z,72.78
2022-07-29T18:21:13.666Z,72.33
2022-07-29T18:23:42.600Z,71.54
2022-07-29T18:26:09.821Z,72.25
2022-07-29T18:28:36.737Z,73.54
2022-07-29T18:31:03.699Z,74.22
2022-07-29T18:33:32.517Z,74.18
2022-07-29T18:36:10.065Z,73.84
2022-07-29T18:38:38.363Z,74.62
2022-07-29T18:41:06.551Z,76.26
2022-07-29T18:43:33.471Z,77.50
2022-07-29T18:46:00.570Z,77.90
2022-07-29T18:48:27.373Z,78.21
2022-07-29T18:50:54.480Z,79.19
2022-07-29T18:53:21.257Z,79.49
2022-07-29T18:55:48.068Z,80.19
2022-07-29T18:58:16.158Z,80.75
2022-07-29T19:00:43.533Z,81.01
2022-07-29T19:03:10.548Z,81.47
2022-07-29T19:05:37.477Z,81.56
2022-07-29T19:08:04.611Z,81.87
2022-07-29T19:10:31.427Z,82.34
2022-07-29T19:12:58.826Z,82.34
2022-07-29T19:15:27.531Z,82.63
2022-07-29T19:17:59.022Z,83.11
2022-07-29T19:20:27.762Z,83.29
2022-07-29T19:22:54.586Z,83.66
2022-07-29T19:25:23.084Z,83.77
2022-07-29T19:27:49.871Z,84.49
2022-07-29T19:30:16.991Z,84.66
2022-07-29T19:32:45.112Z,85.16
2022-07-29T19:35:30.555Z,85.49
2022-07-29T19:38:00.779Z,85.59
2022-07-29T19:40:28.890Z,85.97
2022-07-29T19:42:56.172Z,86.06
2022-07-29T19:45:24.879Z,85.80
2022-07-29T19:47:57.697Z,86.35
2022-07-29T19:50:27.679Z,86.80
2022-07-29T19:52:54.573Z,87.40
2022-07-29T19:55:22.004Z,87.25
2022-07-29T19:57:49.015Z,87.36
2022-07-29T20:00:16.442Z,87.32
2022-07-29T20:02:43.724Z,87.70
2022-07-29T20:05:12.346Z,87.79
2022-07-29T20:07:40.086Z,88.06
2022-07-29T20:10:08.956Z,88.00
2022-07-29T20:12:38.020Z,88.28
2022-07-29T20:15:07.244Z,88.16
2022-07-29T20:17:39.763Z,88.57
2022-07-29T20:20:09.150Z,88.61
2022-07-29T20:22:37.822Z,88.77
2022-07-29T20:25:05.894Z,88.63
2022-07-29T20:27:32.748Z,89.11
2022-07-29T20:29:59.498Z,89.44
2022-07-29T20:32:26.602Z,89.48
2022-07-29T20:34:53.715Z,89.38
2022-07-29T20:37:20.709Z,89.85
2022-07-29T20:39:48.920Z,90.04
2022-07-29T20:42:15.760Z,90.02
2022-07-29T20:44:43.133Z,90.19
2022-07-29T20:47:10.003Z,90.35
2022-07-29T20:49:37.104Z,90.35
2022-07-29T20:52:04.205Z,90.41
2022-07-29T20:54:31.129Z,90.49
2022-07-29T20:56:59.618Z,90.59
2022-07-29T20:59:26.605Z,90.93
2022-07-29T21:01:55.669Z,91.04
2022-07-29T21:04:22.564Z,90.91
2022-07-29T21:06:57.775Z,91.18
2022-07-29T21:09:24.823Z,91.37
2022-07-29T21:11:51.621Z,91.55
2022-07-29T21:14:40.190Z,91.68
2022-07-29T21:17:10.374Z,92.03
2022-07-29T21:19:37.214Z,92.39
2022-07-29T21:22:04.024Z,92.35
2022-07-29T21:24:30.843Z,92.19
2022-07-29T21:27:21.134Z,92.20
2022-07-29T21:29:49.979Z,92.34
2022-07-29T21:32:29.614Z,92.49
2022-07-29T21:34:57.303Z,92.50
2022-07-29T21:37:24.367Z,92.57
2022-07-29T21:39:51.489Z,92.58
2022-07-29T21:42:18.285Z,92.63
2022-07-29T21:44:45.394Z,92.48
2022-07-29T21:47:13.596Z,92.45
2022-07-29T21:49:40.425Z,93.06
2022-07-29T21:52:07.917Z,93.03
2022-07-29T21:54:35.836Z,93.14
2022-07-29T21:57:03.197Z,93.46
2022-07-29T21:59:30.467Z,93.40
2022-07-29T22:02:01.112Z,93.49
2022-07-29T22:04:29.806Z,93.64
2022-07-29T22:06:58.182Z,93.79
2022-07-29T22:09:25.723Z,93.85
2022-07-29T22:11:52.641Z,94.35
2022-07-29T22:14:19.550Z,94.18
2022-07-29T22:16:47.770Z,94.22
2022-07-29T22:19:15.403Z,93.95
2022-07-29T22:21:43.684Z,94.04
2022-07-29T22:24:11.294Z,94.90
2022-07-29T22:26:38.494Z,95.53
2022-07-29T22:29:05.525Z,95.45
2022-07-29T22:31:32.546Z,96.11
2022-07-29T22:33:59.418Z,96.48
2022-07-29T22:36:26.869Z,97.05
2022-07-29T22:38:55.043Z,96.86
2022-07-29T22:41:21.810Z,97.03
2022-07-29T22:43:48.570Z,97.07
2022-07-29T22:46:15.475Z,97.01
2022-07-29T22:48:42.459Z,97.01
2022-07-29T22:51:09.305Z,96.80
2022-07-29T22:53:37.020Z,97.00
2022-07-29T22:56:05.906Z,96.69
2022-07-29T22:58:32.674Z,97.07
2022-07-29T23:00:59.567Z,96.91
2022-07-29T23:03:26.610Z,97.04
2022-07-29T23:05:53.393Z,96.82
2022-07-29T23:08:20.691Z,96.92
2022-07-29T23:10:47.616Z,97.07
2022-07-29T23:13:15.840Z,96.86
2022-07-29T23:15:43.179Z,96.90
2022-07-29T23:18:10.003Z,96.90
2022-07-29T23:20:36.888Z,96.84
2022-07-29T23:23:04.098Z,97.07
2022-07-29T23:25:31.272Z,97.31
2022-07-29T23:27:58.144Z,97.05
2022-07-29T23:30:26.810Z,97.05
2022-07-29T23:32:54.929Z,96.87
2022-07-29T23:35:25.661Z,96.75
2022-07-29T23:37:52.727Z,96.69
2022-07-29T23:40:19.785Z,96.55
2022-07-29T23:42:46.541Z,96.28
2022-07-29T23:45:13.988Z,96.30
2022-07-29T23:47:42.405Z,96.36
2022-07-29T23:50:14.079Z,96.60
2022-07-29T23:52:41.352Z,96.71
2022-07-29T23:55:36.854Z,96.67
2022-07-29T23:57:55.737Z,96.40
